createdAt,value
2019-05-17T00:00:37.352Z,100.00
2019-05-17T00:03:06.958Z,100.00
2019-05-17T00:05:37.537Z,100.00
2019-05-17T00:08:07.605Z,100.00
2019-05-17T00:10:37.532Z,100.00
2019-05-17T00:13:07.634Z,100.00
2019-05-17T00:15:36.804Z,100.00
2019-05-17T00:18:06.724Z,100.00
2019-05-17T00:20:37.434Z,100.00
2019-05-17T00:23:07.013Z,100.00
2019-05-17T00:25:36.903Z,100.00
2019-05-17T00:28:07.261Z,100.00
2019-05-17T00:30:37.236Z,100.00
2019-05-17T00:33:07.870Z,100.00
2019-05-17T00:35:37.543Z,100.00
2019-05-17T00:38:06.731Z,100.00
2019-05-17T00:40:36.553Z,100.00
2019-05-17T00:43:06.761Z,100.00
2019-05-17T00:45:37.616Z,100.00
2019-05-17T00:48:06.569Z,100.00
2019-05-17T00:50:38.008Z,100.00
2019-05-17T00:53:07.308Z,100.00
2019-05-17T00:55:36.452Z,100.00
2019-05-17T00:58:06.714Z,100.00
2019-05-17T01:00:37.529Z,100.00
2019-05-17T01:03:07.164Z,100.00
2019-05-17T01:05:36.876Z,100.00
2019-05-17T01:08:07.369Z,100.00
2019-05-17T01:10:36.888Z,100.00
2019-05-17T01:13:06.920Z,100.00
2019-05-17T01:15:36.918Z,100.00
2019-05-17T01:18:07.173Z,100.00
2019-05-17T01:20:36.901Z,100.00
2019-05-17T01:23:07.531Z,100.00
2019-05-17T01:25:36.934Z,100.00
2019-05-17T01:28:07.599Z,100.00
2019-05-17T01:30:37.510Z,100.00
2019-05-17T01:33:06.766Z,100.00
2019-05-17T01:35:37.403Z,100.00
2019-05-17T01:38:07.273Z,100.00
2019-05-17T01:40:37.268Z,100.00
2019-05-17T01:43:07.872Z,100.00
2019-05-17T01:45:36.680Z,100.00
2019-05-17T01:48:07.473Z,100.00
2019-05-17T01:50:37.305Z,100.00
2019-05-17T01:53:07.374Z,100.00
2019-05-17T01:55:37.571Z,100.00
2019-05-17T01:58:07.261Z,100.00
2019-05-17T02:00:37.534Z,100.00
2019-05-17T02:03:07.011Z,100.00
2019-05-17T02:05:37.225Z,100.00
2019-05-17T02:08:06.740Z,100.00
2019-05-17T02:10:37.553Z,100.00
2019-05-17T02:13:06.600Z,100.00
2019-05-17T02:15:37.815Z,100.00
2019-05-17T02:18:07.020Z,100.00
2019-05-17T02:20:37.247Z,100.00
2019-05-17T02:23:07.244Z,100.00
2019-05-17T02:25:36.918Z,100.00
2019-05-17T02:28:05.905Z,100.00
2019-05-17T02:30:34.680Z,100.00
2019-05-17T02:33:04.157Z,100.00
2019-05-17T02:35:33.772Z,100.00
2019-05-17T02:38:03.053Z,100.00
2019-05-17T02:40:34.098Z,100.00
2019-05-17T02:43:03.302Z,100.00
2019-05-17T02:45:33.091Z,100.00
2019-05-17T02:48:03.899Z,100.00
2019-05-17T02:50:33.409Z,100.00
2019-05-17T02:53:04.351Z,100.00
2019-05-17T02:55:32.891Z,100.00
2019-05-17T02:58:03.200Z,100.00
2019-05-17T03:00:33.878Z,100.00
2019-05-17T03:03:03.627Z,100.00
2019-05-17T03:05:33.827Z,100.00
2019-05-17T03:08:04.109Z,100.00
2019-05-17T03:10:33.648Z,100.00
2019-05-17T03:13:03.999Z,100.00
2019-05-17T03:15:32.961Z,100.00
2019-05-17T03:18:03.903Z,100.00
2019-05-17T03:20:32.694Z,100.00
2019-05-17T03:23:03.697Z,100.00
2019-05-17T03:25:33.481Z,100.00
2019-05-17T03:28:03.192Z,100.00
2019-05-17T03:30:36.913Z,100.00
2019-05-17T03:33:06.959Z,100.00
2019-05-17T03:35:37.591Z,100.00
2019-05-17T03:38:04.596Z,100.00
2019-05-17T03:41:01.346Z,100.00
2019-05-17T03:43:03.732Z,100.00
2019-05-17T03:45:34.079Z,100.00
2019-05-17T03:48:04.911Z,100.00
2019-05-17T03:50:33.911Z,100.00
2019-05-17T03:53:02.789Z,100.00
2019-05-17T03:55:33.334Z,100.00
2019-05-17T03:58:03.237Z,100.00
2019-05-17T04:00:35.412Z,100.00
2019-05-17T04:03:03.226Z,100.00
2019-05-17T04:05:33.491Z,100.00
2019-05-17T04:08:03.442Z,100.00
2019-05-17T04:10:33.551Z,100.00
2019-05-17T04:13:04.239Z,100.00
2019-05-17T04:15:33.335Z,100.00
2019-05-17T04:18:04.168Z,100.00
2019-05-17T04:20:33.505Z,100.00
2019-05-17T04:23:03.887Z,100.00
2019-05-17T04:25:33.701Z,100.00
2019-05-17T04:28:03.241Z,100.00
2019-05-17T04:30:32.970Z,100.00
2019-05-17T04:33:03.357Z,100.00
2019-05-17T04:35:32.907Z,100.00
2019-05-17T04:38:04.161Z,100.00
2019-05-17T04:40:33.928Z,100.00
2019-05-17T04:43:03.231Z,100.00
2019-05-17T04:45:33.652Z,100.00
2019-05-17T04:48:04.042Z,100.00
2019-05-17T04:50:33.580Z,100.00
2019-05-17T04:53:02.999Z,100.00
2019-05-17T04:55:34.200Z,100.00
2019-05-17T04:58:04.089Z,100.00
2019-05-17T05:00:34.090Z,100.00
2019-05-17T05:03:04.021Z,100.00
2019-05-17T05:05:33.356Z,100.00
2019-05-17T05:08:03.061Z,100.00
2019-05-17T05:10:33.799Z,100.00
2019-05-17T05:13:03.416Z,100.00
2019-05-17T05:15:43.367Z,100.00
2019-05-17T05:18:13.268Z,100.00
2019-05-17T05:20:43.444Z,100.00
2019-05-17T05:23:12.995Z,100.00
2019-05-17T05:25:43.111Z,100.00
2019-05-17T05:28:12.158Z,100.00
2019-05-17T05:30:42.153Z,100.00
2019-05-17T05:33:12.798Z,100.00
2019-05-17T05:35:42.423Z,100.00
2019-05-17T05:38:12.967Z,100.00
2019-05-17T05:40:42.476Z,100.00
2019-05-17T05:43:11.927Z,100.00
2019-05-17T05:45:41.717Z,100.00
2019-05-17T05:48:12.774Z,100.00
2019-05-17T05:50:43.138Z,100.00
2019-05-17T05:53:12.925Z,100.00
2019-05-17T05:55:42.884Z,100.00
2019-05-17T05:58:12.296Z,100.00
2019-05-17T06:00:42.759Z,100.00
2019-05-17T06:03:12.031Z,100.00
2019-05-17T06:05:42.322Z,100.00
2019-05-17T06:08:12.198Z,100.00
2019-05-17T06:10:42.659Z,100.00
2019-05-17T06:13:13.219Z,100.00
2019-05-17T06:15:42.924Z,100.00
2019-05-17T06:18:12.296Z,100.00
2019-05-17T06:20:41.775Z,100.00
2019-05-17T06:23:12.337Z,100.00
2019-05-17T06:25:43.487Z,100.00
2019-05-17T06:28:11.946Z,100.00
2019-05-17T06:30:43.073Z,100.00
2019-05-17T06:33:11.964Z,100.00
2019-05-17T06:35:42.460Z,100.00
2019-05-17T06:38:12.076Z,100.00
2019-05-17T06:40:42.076Z,100.00
2019-05-17T06:43:13.051Z,100.00
2019-05-17T06:45:42.080Z,100.00
2019-05-17T06:48:11.796Z,100.00
2019-05-17T06:50:42.911Z,100.00
2019-05-17T06:53:12.301Z,100.00
2019-05-17T06:55:42.557Z,100.00
2019-05-17T06:58:11.868Z,100.00
2019-05-17T07:00:40.637Z,100.00
2019-05-17T07:03:09.650Z,100.00
2019-05-17T07:05:40.936Z,100.00
2019-05-17T07:08:10.782Z,100.00
2019-05-17T07:10:40.072Z,100.00
2019-05-17T07:13:10.638Z,100.00
2019-05-17T07:15:47.359Z,100.00
2019-05-17T07:18:10.423Z,100.00
2019-05-17T07:20:39.695Z,100.00
2019-05-17T07:23:10.810Z,100.00
2019-05-17T07:25:39.749Z,100.00
2019-05-17T07:28:10.165Z,100.00
2019-05-17T07:30:39.922Z,100.00
2019-05-17T07:33:10.210Z,100.00
2019-05-17T07:35:39.647Z,100.00
2019-05-17T07:38:10.539Z,100.00
2019-05-17T07:40:39.848Z,100.00
2019-05-17T07:43:14.397Z,100.00
2019-05-17T07:45:40.669Z,100.00
2019-05-17T07:48:09.816Z,100.00
2019-05-17T07:50:39.928Z,100.00
2019-05-17T07:53:10.279Z,100.00
2019-05-17T07:55:39.876Z,100.00
2019-05-17T07:58:09.957Z,100.00
2019-05-17T08:00:40.077Z,100.00
2019-05-17T08:03:12.616Z,100.00
2019-05-17T08:05:40.293Z,100.00
2019-05-17T08:08:09.770Z,100.00
2019-05-17T08:10:40.912Z,100.00
2019-05-17T08:13:25.216Z,100.00
2019-05-17T08:15:39.900Z,100.00
2019-05-17T08:18:10.813Z,100.00
2019-05-17T08:20:40.111Z,100.00
2019-05-17T08:23:10.508Z,99.20
2019-05-17T08:25:52.042Z,100.00
2019-05-17T08:28:10.933Z,100.00
2019-05-17T08:30:40.933Z,99.84
2019-05-17T08:33:12.707Z,98.72
2019-05-17T08:35:46.541Z,100.00
2019-05-17T08:38:15.082Z,98.84
2019-05-17T08:40:43.675Z,98.53
2019-05-17T08:43:15.762Z,99.29
2019-05-17T08:45:44.444Z,98.93
2019-05-17T08:48:15.052Z,99.35
2019-05-17T08:50:43.695Z,98.14
2019-05-17T08:53:15.099Z,98.73
2019-05-17T08:55:43.678Z,99.20
2019-05-17T08:58:12.312Z,97.37
2019-05-17T09:00:41.060Z,97.47
2019-05-17T09:03:10.675Z,98.84
2019-05-17T09:05:41.775Z,97.59
2019-05-17T09:08:10.657Z,95.17
2019-05-17T09:10:40.719Z,94.85
2019-05-17T09:13:12.397Z,94.33
2019-05-17T09:15:40.179Z,93.37
2019-05-17T09:18:09.892Z,93.84
2019-05-17T09:20:40.508Z,93.92
2019-05-17T09:23:09.675Z,93.43
2019-05-17T09:25:39.841Z,95.10
2019-05-17T09:28:10.119Z,94.19
2019-05-17T09:30:40.434Z,93.73
2019-05-17T09:33:11.377Z,94.63
2019-05-17T09:35:40.838Z,94.51
2019-05-17T09:38:10.259Z,93.45
2019-05-17T09:40:40.187Z,92.92
2019-05-17T09:43:10.090Z,93.59
2019-05-17T09:45:40.338Z,94.19
2019-05-17T09:48:10.317Z,93.84
2019-05-17T09:50:39.965Z,93.60
2019-05-17T09:53:10.689Z,94.89
2019-05-17T09:55:39.720Z,95.13
2019-05-17T09:58:09.804Z,96.38
2019-05-17T10:00:38.777Z,96.82
2019-05-17T10:03:09.687Z,96.57
2019-05-17T10:05:40.277Z,97.02
2019-05-17T10:08:10.601Z,96.60
2019-05-17T10:10:40.258Z,96.87
2019-05-17T10:13:09.835Z,98.46
2019-05-17T10:15:40.919Z,97.96
2019-05-17T10:18:11.140Z,98.82
2019-05-17T10:20:40.120Z,98.90
2019-05-17T10:23:10.452Z,99.28
2019-05-17T10:25:40.048Z,100.00
2019-05-17T10:28:10.130Z,100.00
2019-05-17T10:30:39.935Z,100.00
2019-05-17T10:33:09.806Z,100.00
2019-05-17T10:35:40.671Z,100.00
2019-05-17T10:38:10.348Z,100.00
2019-05-17T10:40:40.860Z,100.00
2019-05-17T10:43:10.184Z,100.00
2019-05-17T10:45:40.058Z,100.00
2019-05-17T10:48:10.272Z,100.00
2019-05-17T10:50:40.689Z,100.00
2019-05-17T10:53:10.223Z,100.00
2019-05-17T10:55:39.697Z,100.00
2019-05-17T10:58:09.994Z,100.00
2019-05-17T11:00:41.413Z,100.00
2019-05-17T11:03:10.060Z,100.00
2019-05-17T11:05:40.158Z,100.00
2019-05-17T11:08:10.623Z,100.00
2019-05-17T11:10:39.754Z,100.00
2019-05-17T11:13:08.398Z,100.00
2019-05-17T11:15:36.953Z,100.00
2019-05-17T11:18:05.758Z,100.00
2019-05-17T11:20:34.346Z,100.00
2019-05-17T11:23:02.935Z,100.00
2019-05-17T11:25:31.619Z,100.00
2019-05-17T11:28:00.211Z,100.00
2019-05-17T11:30:28.801Z,100.00
2019-05-17T11:32:57.589Z,100.00
2019-05-17T11:35:26.202Z,100.00
2019-05-17T11:37:54.688Z,100.00
2019-05-17T11:40:23.483Z,100.00
2019-05-17T11:42:51.958Z,99.81
2019-05-17T11:45:28.198Z,98.86
2019-05-17T11:47:51.137Z,97.56
2019-05-17T11:50:20.250Z,97.89
2019-05-17T11:52:48.932Z,97.30
2019-05-17T11:55:17.726Z,97.73
2019-05-17T11:57:46.317Z,96.10
2019-05-17T12:00:16.487Z,95.30
2019-05-17T12:02:44.978Z,95.00
2019-05-17T12:05:13.539Z,94.30
2019-05-17T12:07:42.159Z,94.65
2019-05-17T12:10:11.058Z,95.81
2019-05-17T12:12:39.753Z,95.41
2019-05-17T12:15:08.741Z,94.70
2019-05-17T12:17:37.528Z,94.88
2019-05-17T12:20:06.659Z,95.10
2019-05-17T12:22:35.067Z,95.32
2019-05-17T12:25:04.012Z,93.90
2019-05-17T12:27:32.606Z,94.66
2019-05-17T12:30:01.299Z,94.33
2019-05-17T12:32:29.929Z,93.36
2019-05-17T12:34:58.544Z,92.12
2019-05-17T12:37:27.140Z,91.86
2019-05-17T12:39:55.733Z,93.16
2019-05-17T12:42:24.516Z,93.03
2019-05-17T12:44:52.989Z,92.42
2019-05-17T12:47:21.463Z,92.83
2019-05-17T12:49:50.070Z,93.13
2019-05-17T12:52:18.564Z,92.40
2019-05-17T12:54:47.061Z,91.97
2019-05-17T12:57:15.744Z,93.74
2019-05-17T12:59:44.322Z,93.25
2019-05-17T13:02:12.972Z,93.80
2019-05-17T13:04:41.536Z,93.83
2019-05-17T13:07:10.065Z,92.37
2019-05-17T13:09:38.547Z,92.75
2019-05-17T13:12:07.140Z,91.96
2019-05-17T13:14:35.836Z,91.51
2019-05-17T13:17:04.529Z,90.46
2019-05-17T13:19:33.094Z,90.24
2019-05-17T13:22:01.823Z,91.28
2019-05-17T13:24:30.404Z,90.88
2019-05-17T13:26:59.083Z,89.51
2019-05-17T13:29:27.697Z,89.97
2019-05-17T13:31:56.289Z,89.24
2019-05-17T13:34:24.769Z,91.74
2019-05-17T13:36:53.373Z,90.44
2019-05-17T13:39:21.880Z,92.19
2019-05-17T13:41:50.573Z,91.00
2019-05-17T13:44:19.177Z,92.19
2019-05-17T13:46:48.169Z,89.96
2019-05-17T13:49:16.870Z,89.65
2019-05-17T13:51:45.542Z,91.58
2019-05-17T13:54:14.163Z,92.11
2019-05-17T13:56:42.774Z,92.32
2019-05-17T13:59:11.378Z,92.20
2019-05-17T14:01:40.032Z,91.30
2019-05-17T14:04:08.669Z,90.75
2019-05-17T14:06:37.155Z,91.42
2019-05-17T14:09:06.139Z,90.47
2019-05-17T14:11:34.646Z,89.56
2019-05-17T14:14:03.235Z,90.99
2019-05-17T14:16:34.385Z,92.01
2019-05-17T14:19:02.094Z,91.50
2019-05-17T14:21:30.726Z,90.92
2019-05-17T14:23:59.357Z,91.91
2019-05-17T14:26:27.940Z,91.58
2019-05-17T14:28:56.560Z,89.76
2019-05-17T14:31:25.148Z,91.29
2019-05-17T14:33:53.879Z,91.74
2019-05-17T14:36:22.639Z,92.37
2019-05-17T14:38:51.355Z,92.01
2019-05-17T14:41:19.896Z,92.73
2019-05-17T14:43:48.518Z,90.98
2019-05-17T14:46:17.104Z,91.90
2019-05-17T14:48:45.692Z,91.76
2019-05-17T14:51:14.304Z,92.99
2019-05-17T14:53:42.801Z,94.27
2019-05-17T14:56:11.403Z,90.65
2019-05-17T14:58:39.806Z,90.79
2019-05-17T15:01:08.292Z,92.87
2019-05-17T15:03:36.970Z,91.72
2019-05-17T15:06:05.573Z,89.60
2019-05-17T15:08:34.153Z,91.12
2019-05-17T15:11:02.566Z,90.56
2019-05-17T15:13:31.166Z,93.28
2019-05-17T15:15:59.730Z,90.86
2019-05-17T15:18:28.427Z,93.19
2019-05-17T15:20:57.120Z,91.44
2019-05-17T15:23:25.845Z,91.63
2019-05-17T15:25:54.458Z,90.32
2019-05-17T15:28:22.963Z,90.73
2019-05-17T15:30:51.557Z,90.45
2019-05-17T15:33:20.145Z,92.85
2019-05-17T15:35:48.910Z,90.96
2019-05-17T15:38:17.492Z,91.30
2019-05-17T15:40:46.397Z,91.91
2019-05-17T15:43:14.878Z,92.81
2019-05-17T15:45:43.473Z,90.51
2019-05-17T15:48:12.308Z,89.38
2019-05-17T15:50:40.784Z,92.31
2019-05-17T15:53:09.447Z,91.09
2019-05-17T15:55:38.213Z,92.43
2019-05-17T15:58:06.888Z,90.63
2019-05-17T16:00:35.295Z,92.84
2019-05-17T16:03:03.791Z,92.83
2019-05-17T16:05:32.287Z,93.78
2019-05-17T16:08:00.977Z,94.30
2019-05-17T16:10:29.682Z,93.89
2019-05-17T16:13:03.229Z,93.91
2019-05-17T16:15:28.789Z,94.95
2019-05-17T16:17:57.381Z,94.61
2019-05-17T16:20:25.965Z,94.77
2019-05-17T16:22:54.656Z,95.02
2019-05-17T16:25:23.458Z,93.63
2019-05-17T16:27:52.050Z,95.09
2019-05-17T16:30:20.645Z,96.11
2019-05-17T16:32:49.228Z,96.13
2019-05-17T16:35:17.723Z,96.55
2019-05-17T16:37:46.218Z,96.85
2019-05-17T16:40:14.997Z,97.09
2019-05-17T16:42:43.583Z,97.91
2019-05-17T16:45:14.182Z,97.80
2019-05-17T16:47:42.681Z,97.58
2019-05-17T16:50:11.676Z,98.31
2019-05-17T16:52:40.175Z,99.72
2019-05-17T16:55:09.182Z,98.71
2019-05-17T16:57:37.784Z,98.92
2019-05-17T17:00:30.480Z,99.64
2019-05-17T17:02:59.291Z,99.25
2019-05-17T17:05:27.817Z,100.00
2019-05-17T17:07:56.491Z,100.00
2019-05-17T17:10:25.290Z,100.00
2019-05-17T17:12:53.876Z,100.00
2019-05-17T17:15:22.677Z,100.00
2019-05-17T17:17:51.420Z,100.00
2019-05-17T17:20:20.207Z,100.00
2019-05-17T17:22:49.324Z,100.00
2019-05-17T17:25:18.126Z,100.00
2019-05-17T17:27:46.833Z,100.00
2019-05-17T17:30:16.513Z,100.00
2019-05-17T17:32:45.198Z,100.00
2019-05-17T17:35:13.984Z,100.00
2019-05-17T17:37:42.592Z,100.00
2019-05-17T17:40:11.530Z,100.00
2019-05-17T17:42:40.244Z,100.00
2019-05-17T17:45:15.930Z,100.00
2019-05-17T17:47:44.489Z,100.00
2019-05-17T17:50:14.311Z,100.00
2019-05-17T17:52:45.428Z,100.00
2019-05-17T17:55:14.134Z,100.00
2019-05-17T17:57:42.624Z,100.00
2019-05-17T18:00:12.261Z,100.00
2019-05-17T18:02:40.886Z,100.00
2019-05-17T18:05:09.589Z,100.00
2019-05-17T18:07:38.085Z,100.00
2019-05-17T18:10:07.100Z,100.00
2019-05-17T18:12:35.811Z,100.00
2019-05-17T18:15:06.623Z,100.00
2019-05-17T18:17:39.289Z,100.00
2019-05-17T18:20:05.999Z,100.00
2019-05-17T18:22:34.604Z,100.00
2019-05-17T18:25:04.746Z,100.00
2019-05-17T18:27:33.331Z,100.00
2019-05-17T18:30:02.245Z,100.00
2019-05-17T18:32:30.839Z,100.00
2019-05-17T18:34:59.642Z,100.00
2019-05-17T18:37:28.354Z,100.00
2019-05-17T18:39:56.827Z,100.00
2019-05-17T18:42:25.294Z,100.00
2019-05-17T18:44:54.000Z,100.00
2019-05-17T18:47:22.708Z,100.00
2019-05-17T18:49:51.317Z,100.00
2019-05-17T18:52:20.008Z,100.00
2019-05-17T18:54:49.176Z,100.00
2019-05-17T18:57:17.765Z,100.00
2019-05-17T18:59:46.370Z,100.00
2019-05-17T19:02:14.954Z,100.00
2019-05-17T19:04:43.569Z,100.00
2019-05-17T19:07:12.062Z,100.00
2019-05-17T19:09:40.741Z,100.00
2019-05-17T19:12:09.442Z,100.00
2019-05-17T19:14:42.893Z,100.00
2019-05-17T19:17:08.448Z,100.00
2019-05-17T19:19:36.916Z,100.00
2019-05-17T19:22:05.618Z,100.00
2019-05-17T19:24:34.104Z,100.00
2019-05-17T19:27:03.174Z,100.00
2019-05-17T19:29:31.670Z,100.00
2019-05-17T19:32:00.136Z,100.00
2019-05-17T19:34:28.538Z,100.00
2019-05-17T19:36:57.025Z,100.00
2019-05-17T19:39:25.504Z,100.00
2019-05-17T19:41:54.093Z,100.00
2019-05-17T19:44:22.729Z,100.00
2019-05-17T19:46:51.240Z,100.00
2019-05-17T19:49:19.938Z,100.00
2019-05-17T19:51:48.651Z,100.00
2019-05-17T19:54:17.361Z,100.00
2019-05-17T19:56:45.847Z,100.00
2019-05-17T19:59:14.323Z,100.00
2019-05-17T20:01:42.707Z,100.00
2019-05-17T20:04:11.393Z,100.00
2019-05-17T20:06:39.789Z,100.00
2019-05-17T20:09:08.372Z,100.00
2019-05-17T20:11:36.991Z,100.00
2019-05-17T20:14:05.473Z,100.00
2019-05-17T20:16:34.074Z,100.00
2019-05-17T20:19:02.660Z,100.00
2019-05-17T20:21:31.362Z,100.00
2019-05-17T20:24:00.255Z,100.00
2019-05-17T20:26:28.945Z,100.00
2019-05-17T20:28:57.451Z,100.00
2019-05-17T20:31:25.929Z,100.00
2019-05-17T20:33:54.532Z,100.00
2019-05-17T20:36:23.033Z,100.00
2019-05-17T20:38:51.632Z,100.00
2019-05-17T20:41:20.177Z,100.00
2019-05-17T20:43:48.834Z,100.00
2019-05-17T20:46:17.424Z,100.00
2019-05-17T20:48:46.130Z,100.00
2019-05-17T20:51:14.824Z,100.00
2019-05-17T20:53:43.208Z,100.00
2019-05-17T20:56:11.800Z,100.00
2019-05-17T20:58:40.378Z,100.00
2019-05-17T21:01:09.060Z,100.00
2019-05-17T21:03:37.649Z,100.00
2019-05-17T21:06:06.241Z,100.00
2019-05-17T21:08:45.527Z,100.00
2019-05-17T21:11:05.247Z,100.00
2019-05-17T21:13:33.931Z,100.00
2019-05-17T21:16:02.521Z,100.00
2019-05-17T21:18:31.414Z,100.00
2019-05-17T21:21:00.841Z,100.00
2019-05-17T21:23:29.221Z,100.00
2019-05-17T21:25:59.395Z,100.00
2019-05-17T21:28:27.995Z,100.00
2019-05-17T21:30:56.546Z,100.00
2019-05-17T21:33:25.213Z,100.00
2019-05-17T21:35:53.796Z,100.00
2019-05-17T21:38:22.316Z,100.00
2019-05-17T21:40:50.913Z,100.00
2019-05-17T21:43:19.522Z,100.00
2019-05-17T21:46:02.319Z,100.00
2019-05-17T21:48:18.598Z,100.00
2019-05-17T21:50:47.018Z,100.00
2019-05-17T21:53:15.509Z,100.00
2019-05-17T21:55:44.101Z,100.00
2019-05-17T21:58:12.589Z,100.00
2019-05-17T22:01:25.710Z,100.00
2019-05-17T22:03:54.197Z,100.00
2019-05-17T22:06:22.882Z,100.00
2019-05-17T22:08:51.472Z,100.00
2019-05-17T22:11:20.133Z,100.00
2019-05-17T22:13:48.627Z,100.00
2019-05-17T22:16:19.940Z,100.00
2019-05-17T22:18:47.614Z,100.00
2019-05-17T22:21:16.005Z,100.00
2019-05-17T22:23:44.501Z,100.00
2019-05-17T22:26:13.092Z,100.00
2019-05-17T22:28:41.583Z,100.00
2019-05-17T22:31:10.218Z,100.00
2019-05-17T22:33:38.711Z,100.00
2019-05-17T22:36:07.540Z,100.00
2019-05-17T22:38:36.054Z,100.00
2019-05-17T22:41:04.700Z,100.00
2019-05-17T22:43:33.511Z,100.00
2019-05-17T22:46:02.250Z,100.00
2019-05-17T22:48:31.046Z,100.00
2019-05-17T22:50:59.723Z,100.00
2019-05-17T22:53:28.408Z,100.00
2019-05-17T22:55:56.992Z,100.00
2019-05-17T22:58:25.729Z,100.00
2019-05-17T23:00:54.171Z,100.00
2019-05-17T23:03:22.810Z,100.00
2019-05-17T23:05:51.439Z,100.00
2019-05-17T23:08:19.901Z,100.00
2019-05-17T23:10:48.380Z,100.00
2019-05-17T23:13:16.762Z,100.00
2019-05-17T23:16:01.160Z,100.00
2019-05-17T23:18:31.034Z,100.00
2019-05-17T23:20:59.998Z,100.00
2019-05-17T23:23:28.598Z,100.00
2019-05-17T23:25:57.432Z,100.00
2019-05-17T23:28:25.834Z,100.00
2019-05-17T23:30:54.419Z,100.00
2019-05-17T23:33:22.986Z,100.00
2019-05-17T23:35:51.363Z,100.00
2019-05-17T23:38:19.923Z,100.00
2019-05-17T23:40:48.621Z,100.00
2019-05-17T23:43:17.024Z,100.00
2019-05-17T23:45:45.644Z,100.00
2019-05-17T23:48:14.080Z,100.00
2019-05-17T23:50:42.484Z,100.00
2019-05-17T23:53:10.864Z,100.00
2019-05-17T23:55:39.349Z,100.00
2019-05-17T23:58:07.731Z,100.00
